sensor_id;sensor_type;location;lat;lon;timestamp;pressure;altitude;pressure_sealevel;temperature;humidity
40596;BME280;26304;48.794;9.820;2023-05-08T00:04:58;96616.09;;;18.62;67.71
40596;BME280;26304;48.794;9.820;2023-05-08T00:10:42;96612.72;;;18.65;67.37
40596;BME280;26304;48.794;9.820;2023-05-08T00:16:24;96613.03;;;18.52;67.99
40596;BME280;26304;48.794;9.820;2023-05-08T00:22:07;96607.34;;;18.50;68.08
40596;BME280;26304;48.794;9.820;2023-05-08T00:27:51;96611.13;;;18.49;67.80
40596;BME280;26304;48.794;9.820;2023-05-08T00:33:33;96613.06;;;18.56;67.78
40596;BME280;26304;48.794;9.820;2023-05-08T00:39:15;96613.91;;;18.67;66.91
40596;BME280;26304;48.794;9.820;2023-05-08T00:44:59;96614.59;;;18.61;67.09
40596;BME280;26304;48.794;9.820;2023-05-08T00:50:42;96616.03;;;18.55;67.36
40596;BME280;26304;48.794;9.820;2023-05-08T00:56:27;96613.63;;;18.35;67.79
40596;BME280;26304;48.794;9.820;2023-05-08T01:02:12;96620.22;;;18.59;67.00
40596;BME280;26304;48.794;9.820;2023-05-08T01:07:54;96613.41;;;18.55;66.84
40596;BME280;26304;48.794;9.820;2023-05-08T01:13:49;96632.56;;;18.51;67.14
40596;BME280;26304;48.794;9.820;2023-05-08T01:19:52;96628.09;;;18.56;67.24
40596;BME280;26304;48.794;9.820;2023-05-08T01:26:01;96628.75;;;18.45;67.72
40596;BME280;26304;48.794;9.820;2023-05-08T01:38:06;96631.91;;;18.21;68.95
40596;BME280;26304;48.794;9.820;2023-05-08T01:43:54;96631.56;;;18.26;68.43
40596;BME280;26304;48.794;9.820;2023-05-08T01:49:42;96632.78;;;18.32;68.67
40596;BME280;26304;48.794;9.820;2023-05-08T01:55:30;96634.13;;;18.19;68.74
40596;BME280;26304;48.794;9.820;2023-05-08T02:01:17;96637.09;;;18.13;69.25
40596;BME280;26304;48.794;9.820;2023-05-08T02:07:02;96640.47;;;18.14;69.57
40596;BME280;26304;48.794;9.820;2023-05-08T02:12:46;96638.38;;;18.27;68.43
40596;BME280;26304;48.794;9.820;2023-05-08T02:18:30;96643.63;;;18.27;68.47
40596;BME280;26304;48.794;9.820;2023-05-08T02:24:14;96644.41;;;18.31;68.38
40596;BME280;26304;48.794;9.820;2023-05-08T02:29:58;96643.63;;;18.27;68.45
40596;BME280;26304;48.794;9.820;2023-05-08T02:35:43;96636.41;;;18.20;68.29
40596;BME280;26304;48.794;9.820;2023-05-08T02:41:28;96640.16;;;18.19;68.36
40596;BME280;26304;48.794;9.820;2023-05-08T02:47:20;96637.03;;;18.06;69.08
40596;BME280;26304;48.794;9.820;2023-05-08T02:53:07;96637.38;;;18.05;69.22
40596;BME280;26304;48.794;9.820;2023-05-08T02:58:55;96640.25;;;17.92;69.88
40596;BME280;26304;48.794;9.820;2023-05-08T03:04:45;96633.81;;;17.90;70.00
40596;BME280;26304;48.794;9.820;2023-05-08T03:10:32;96634.63;;;17.94;69.99
40596;BME280;26304;48.794;9.820;2023-05-08T03:16:19;96638.69;;;17.88;70.19
40596;BME280;26304;48.794;9.820;2023-05-08T03:22:04;96632.63;;;18.18;69.71
40596;BME280;26304;48.794;9.820;2023-05-08T03:27:48;96628.63;;;18.31;68.83
40596;BME280;26304;48.794;9.820;2023-05-08T03:33:31;96640.00;;;18.42;68.44
40596;BME280;26304;48.794;9.820;2023-05-08T03:39:17;96640.06;;;18.49;67.40
40596;BME280;26304;48.794;9.820;2023-05-08T03:45:02;96650.72;;;18.64;66.67
40596;BME280;26304;48.794;9.820;2023-05-08T03:50:45;96648.16;;;18.71;65.97
40596;BME280;26304;48.794;9.820;2023-05-08T03:56:29;96651.59;;;18.75;65.63
40596;BME280;26304;48.794;9.820;2023-05-08T04:02:18;96654.72;;;18.88;65.40
40596;BME280;26304;48.794;9.820;2023-05-08T04:08:06;96654.00;;;18.95;65.75
40596;BME280;26304;48.794;9.820;2023-05-08T04:14:01;96658.63;;;19.09;65.52
40596;BME280;26304;48.794;9.820;2023-05-08T04:19:46;96665.81;;;19.15;65.65
40596;BME280;26304;48.794;9.820;2023-05-08T04:25:35;96668.47;;;19.15;65.97
40596;BME280;26304;48.794;9.820;2023-05-08T04:31:20;96676.81;;;19.24;65.63
40596;BME280;26304;48.794;9.820;2023-05-08T04:37:05;96678.72;;;19.28;65.52
40596;BME280;26304;48.794;9.820;2023-05-08T04:42:48;96690.00;;;19.28;65.11
40596;BME280;26304;48.794;9.820;2023-05-08T04:48:31;96688.84;;;19.26;64.88
40596;BME280;26304;48.794;9.820;2023-05-08T04:54:14;96696.38;;;19.23;65.00
40596;BME280;26304;48.794;9.820;2023-05-08T04:59:56;96706.91;;;19.23;65.04
40596;BME280;26304;48.794;9.820;2023-05-08T05:05:40;96702.81;;;19.26;64.53
40596;BME280;26304;48.794;9.820;2023-05-08T05:11:22;96706.88;;;19.16;65.12
40596;BME280;26304;48.794;9.820;2023-05-08T05:17:05;96712.16;;;19.20;64.80
40596;BME280;26304;48.794;9.820;2023-05-08T05:22:48;96717.56;;;19.38;64.96
40596;BME280;26304;48.794;9.820;2023-05-08T05:28:31;96703.97;;;19.32;65.51
40596;BME280;26304;48.794;9.820;2023-05-08T05:34:13;96719.00;;;19.24;65.23
40596;BME280;26304;48.794;9.820;2023-05-08T05:39:57;96726.56;;;19.33;65.03
40596;BME280;26304;48.794;9.820;2023-05-08T05:45:39;96727.34;;;19.34;64.61
40596;BME280;26304;48.794;9.820;2023-05-08T05:51:22;96724.72;;;19.34;64.48
40596;BME280;26304;48.794;9.820;2023-05-08T05:57:06;96727.28;;;19.30;64.09
40596;BME280;26304;48.794;9.820;2023-05-08T06:02:48;96723.56;;;19.35;64.41
40596;BME280;26304;48.794;9.820;2023-05-08T06:08:31;96732.63;;;19.37;64.27
40596;BME280;26304;48.794;9.820;2023-05-08T06:14:14;96725.09;;;19.39;63.81
40596;BME280;26304;48.794;9.820;2023-05-08T06:19:57;96732.28;;;19.39;64.03
40596;BME280;26304;48.794;9.820;2023-05-08T06:25:40;96739.44;;;19.42;63.77
40596;BME280;26304;48.794;9.820;2023-05-08T06:31:24;96734.19;;;19.42;63.65
40596;BME280;26304;48.794;9.820;2023-05-08T06:37:07;96738.72;;;19.45;63.16
40596;BME280;26304;48.794;9.820;2023-05-08T06:42:49;96736.84;;;19.49;63.46
40596;BME280;26304;48.794;9.820;2023-05-08T06:48:33;96732.72;;;19.48;63.54
40596;BME280;26304;48.794;9.820;2023-05-08T06:54:15;96741.78;;;19.54;63.23
40596;BME280;26304;48.794;9.820;2023-05-08T06:59:58;96746.28;;;19.50;63.58
40596;BME280;26304;48.794;9.820;2023-05-08T07:05:43;96747.03;;;19.54;63.26
40596;BME280;26304;48.794;9.820;2023-05-08T07:11:25;96752.31;;;19.54;62.99
40596;BME280;26304;48.794;9.820;2023-05-08T07:17:07;96747.84;;;19.58;62.78
40596;BME280;26304;48.794;9.820;2023-05-08T07:22:51;96744.75;;;19.49;64.14
40596;BME280;26304;48.794;9.820;2023-05-08T07:28:34;96750.09;;;19.56;62.82
40596;BME280;26304;48.794;9.820;2023-05-08T07:34:16;96747.09;;;19.62;62.95
40596;BME280;26304;48.794;9.820;2023-05-08T07:40:00;96755.38;;;19.60;63.24
40596;BME280;26304;48.794;9.820;2023-05-08T07:45:42;96758.44;;;19.66;62.63
40596;BME280;26304;48.794;9.820;2023-05-08T07:51:25;96760.66;;;19.64;62.45
40596;BME280;26304;48.794;9.820;2023-05-08T07:57:09;96755.47;;;19.71;62.35
40596;BME280;26304;48.794;9.820;2023-05-08T08:02:51;96756.13;;;19.60;62.62
40596;BME280;26304;48.794;9.820;2023-05-08T08:08:33;96759.19;;;19.66;62.28
40596;BME280;26304;48.794;9.820;2023-05-08T08:14:17;96757.69;;;19.69;62.48
40596;BME280;26304;48.794;9.820;2023-05-08T08:20:00;96758.81;;;19.68;62.59
40596;BME280;26304;48.794;9.820;2023-05-08T08:25:42;96766.78;;;19.75;62.39
40596;BME280;26304;48.794;9.820;2023-05-08T08:31:26;96772.03;;;19.75;62.28
40596;BME280;26304;48.794;9.820;2023-05-08T08:37:08;96769.06;;;19.76;61.93
40596;BME280;26304;48.794;9.820;2023-05-08T08:42:51;96770.59;;;19.77;61.95
40596;BME280;26304;48.794;9.820;2023-05-08T08:48:36;96773.59;;;19.76;61.87
40596;BME280;26304;48.794;9.820;2023-05-08T08:54:22;96772.88;;;19.79;62.05
40596;BME280;26304;48.794;9.820;2023-05-08T09:00:07;96773.97;;;19.78;62.11
40596;BME280;26304;48.794;9.820;2023-05-08T09:05:52;96778.88;;;19.76;62.00
40596;BME280;26304;48.794;9.820;2023-05-08T09:11:36;96778.88;;;19.76;61.97
40596;BME280;26304;48.794;9.820;2023-05-08T09:17:20;96786.41;;;19.77;61.91
40596;BME280;26304;48.794;9.820;2023-05-08T09:23:04;96783.41;;;19.79;61.50
40596;BME280;26304;48.794;9.820;2023-05-08T09:28:47;96788.31;;;19.77;62.01
40596;BME280;26304;48.794;9.820;2023-05-08T09:34:30;96797.28;;;19.72;61.93
40596;BME280;26304;48.794;9.820;2023-05-08T09:40:17;96791.03;;;19.91;63.38
40596;BME280;26304;48.794;9.820;2023-05-08T09:46:18;96796.72;;;20.01;62.72
40596;BME280;26304;48.794;9.820;2023-05-08T09:52:02;96796.31;;;19.91;63.03
40596;BME280;26304;48.794;9.820;2023-05-08T09:57:54;96798.59;;;19.93;62.48
40596;BME280;26304;48.794;9.820;2023-05-08T10:03:47;96797.81;;;19.92;62.30
40596;BME280;26304;48.794;9.820;2023-05-08T10:09:29;96809.53;;;19.95;62.22
40596;BME280;26304;48.794;9.820;2023-05-08T10:15:13;96805.00;;;19.95;62.37
40596;BME280;26304;48.794;9.820;2023-05-08T10:20:57;96806.19;;;20.05;62.72
40596;BME280;26304;48.794;9.820;2023-05-08T10:26:50;96808.06;;;20.05;62.69
40596;BME280;26304;48.794;9.820;2023-05-08T10:32:37;96805.50;;;20.16;62.76
40596;BME280;26304;48.794;9.820;2023-05-08T10:38:22;96796.13;;;20.32;62.87
40596;BME280;26304;48.794;9.820;2023-05-08T10:44:05;96793.47;;;20.29;63.05
40596;BME280;26304;48.794;9.820;2023-05-08T10:49:56;96798.06;;;20.39;62.97
40596;BME280;26304;48.794;9.820;2023-05-08T10:55:44;96798.06;;;20.43;63.70
40596;BME280;26304;48.794;9.820;2023-05-08T11:01:27;96799.56;;;20.40;63.23
40596;BME280;26304;48.794;9.820;2023-05-08T11:07:11;96799.22;;;20.53;62.82
40596;BME280;26304;48.794;9.820;2023-05-08T11:12:53;96786.03;;;20.53;64.03
40596;BME280;26304;48.794;9.820;2023-05-08T11:18:36;96791.69;;;20.51;63.22
40596;BME280;26304;48.794;9.820;2023-05-08T11:24:32;96794.25;;;20.37;64.05
40596;BME280;26304;48.794;9.820;2023-05-08T11:30:21;96796.91;;;20.33;64.05
40596;BME280;26304;48.794;9.820;2023-05-08T11:36:11;96800.28;;;20.26;64.20
40596;BME280;26304;48.794;9.820;2023-05-08T11:42:33;96797.22;;;20.24;64.00
40596;BME280;26304;48.794;9.820;2023-05-08T11:48:18;96792.69;;;20.21;64.44
40596;BME280;26304;48.794;9.820;2023-05-08T11:54:00;96796.44;;;20.17;64.58
40596;BME280;26304;48.794;9.820;2023-05-08T11:59:48;96787.38;;;20.14;64.49
40596;BME280;26304;48.794;9.820;2023-05-08T12:05:31;96799.06;;;20.13;64.31
40596;BME280;26304;48.794;9.820;2023-05-08T12:11:21;96795.66;;;20.09;64.52
40596;BME280;26304;48.794;9.820;2023-05-08T12:17:05;96795.28;;;20.10;63.94
40596;BME280;26304;48.794;9.820;2023-05-08T12:22:49;96789.97;;;20.07;63.82
40596;BME280;26304;48.794;9.820;2023-05-08T12:28:32;96791.88;;;20.10;64.01
40596;BME280;26304;48.794;9.820;2023-05-08T12:34:16;96794.19;;;20.19;63.82
40596;BME280;26304;48.794;9.820;2023-05-08T12:39:58;96791.97;;;20.28;65.49
40596;BME280;26304;48.794;9.820;2023-05-08T12:45:41;96783.69;;;20.33;64.07
40596;BME280;26304;48.794;9.820;2023-05-08T12:51:30;96785.19;;;20.34;63.37
40596;BME280;26304;48.794;9.820;2023-05-08T12:57:13;96789.81;;;20.59;62.58
40596;BME280;26304;48.794;9.820;2023-05-08T13:02:56;96781.84;;;20.48;62.38
40596;BME280;26304;48.794;9.820;2023-05-08T13:08:40;96786.41;;;20.51;62.43
40596;BME280;26304;48.794;9.820;2023-05-08T13:14:22;96781.50;;;20.53;62.63
40596;BME280;26304;48.794;9.820;2023-05-08T13:20:05;96781.91;;;20.55;62.00
40596;BME280;26304;48.794;9.820;2023-05-08T13:25:50;96787.13;;;20.48;62.13
40596;BME280;26304;48.794;9.820;2023-05-08T13:31:33;96793.56;;;20.50;61.87
40596;BME280;26304;48.794;9.820;2023-05-08T13:37:15;96779.22;;;20.48;61.79
40596;BME280;26304;48.794;9.820;2023-05-08T13:43:01;96772.78;;;20.42;62.24
40596;BME280;26304;48.794;9.820;2023-05-08T13:48:43;96773.56;;;20.46;62.03
40596;BME280;26304;48.794;9.820;2023-05-08T13:54:25;96766.00;;;20.48;62.26
40596;BME280;26304;48.794;9.820;2023-05-08T14:00:11;96763.38;;;20.51;61.42
40596;BME280;26304;48.794;9.820;2023-05-08T14:05:53;96758.88;;;20.52;61.87
40596;BME280;26304;48.794;9.820;2023-05-08T14:11:36;96752.84;;;20.55;61.76
40596;BME280;26304;48.794;9.820;2023-05-08T14:17:19;96750.56;;;20.57;61.38
40596;BME280;26304;48.794;9.820;2023-05-08T14:23:02;96747.56;;;20.55;61.63
40596;BME280;26304;48.794;9.820;2023-05-08T14:28:44;96744.53;;;20.60;61.72
40596;BME280;26304;48.794;9.820;2023-05-08T14:34:28;96749.84;;;20.67;61.24
40596;BME280;26304;48.794;9.820;2023-05-08T14:40:11;96739.28;;;20.67;62.38
40596;BME280;26304;48.794;9.820;2023-05-08T14:45:53;96740.81;;;20.68;61.25
40596;BME280;26304;48.794;9.820;2023-05-08T14:51:37;96739.22;;;20.53;61.53
40596;BME280;26304;48.794;9.820;2023-05-08T14:57:19;96732.47;;;20.63;61.60
40596;BME280;26304;48.794;9.820;2023-05-08T15:03:01;96738.53;;;20.71;61.51
40596;BME280;26304;48.794;9.820;2023-05-08T15:08:45;96741.59;;;20.73;61.34
40596;BME280;26304;48.794;9.820;2023-05-08T15:14:28;96737.06;;;20.84;60.76
40596;BME280;26304;48.794;9.820;2023-05-08T15:20:10;96738.53;;;20.71;61.31
40596;BME280;26304;48.794;9.820;2023-05-08T15:25:54;96737.03;;;20.66;61.09
40596;BME280;26304;48.794;9.820;2023-05-08T15:31:36;96731.03;;;20.76;61.29
40596;BME280;26304;48.794;9.820;2023-05-08T15:37:19;96739.72;;;20.84;60.83
40596;BME280;26304;48.794;9.820;2023-05-08T15:43:02;96730.28;;;20.79;61.08
40596;BME280;26304;48.794;9.820;2023-05-08T15:48:45;96738.94;;;20.83;60.65
40596;BME280;26304;48.794;9.820;2023-05-08T15:54:27;96743.09;;;20.88;60.48
40596;BME280;26304;48.794;9.820;2023-05-08T16:00:15;96730.25;;;20.86;60.91
40596;BME280;26304;48.794;9.820;2023-05-08T16:05:57;96729.88;;;20.88;60.61
40596;BME280;26304;48.794;9.820;2023-05-08T16:11:39;96736.28;;;20.83;60.34
40596;BME280;26304;48.794;9.820;2023-05-08T16:17:24;96741.22;;;20.99;60.15
40596;BME280;26304;48.794;9.820;2023-05-08T16:23:06;96740.47;;;21.02;59.84
40596;BME280;26304;48.794;9.820;2023-05-08T16:28:49;96743.88;;;21.07;60.11
40596;BME280;26304;48.794;9.820;2023-05-08T16:34:33;96740.47;;;21.02;60.09
40596;BME280;26304;48.794;9.820;2023-05-08T16:40:16;96740.09;;;21.00;59.87
40596;BME280;26304;48.794;9.820;2023-05-08T16:45:59;96734.81;;;21.00;59.36
40596;BME280;26304;48.794;9.820;2023-05-08T16:51:42;96737.84;;;21.10;59.22
40596;BME280;26304;48.794;9.820;2023-05-08T16:57:25;96743.50;;;21.04;59.45
40596;BME280;26304;48.794;9.820;2023-05-08T17:03:08;96751.81;;;20.89;59.96
40596;BME280;26304;48.794;9.820;2023-05-08T17:08:52;96749.16;;;20.96;59.61
40596;BME280;26304;48.794;9.820;2023-05-08T17:14:35;96749.94;;;21.00;59.50
40596;BME280;26304;48.794;9.820;2023-05-08T17:20:19;96752.19;;;21.05;59.26
40596;BME280;26304;48.794;9.820;2023-05-08T17:26:03;96752.19;;;20.94;59.28
40596;BME280;26304;48.794;9.820;2023-05-08T17:31:45;96756.31;;;20.92;59.70
40596;BME280;26304;48.794;9.820;2023-05-08T17:37:28;96758.22;;;20.91;59.63
40596;BME280;26304;48.794;9.820;2023-05-08T17:43:11;96756.72;;;20.90;59.56
40596;BME280;26304;48.794;9.820;2023-05-08T17:48:54;96764.25;;;20.88;59.73
40596;BME280;26304;48.794;9.820;2023-05-08T17:54:36;96768.03;;;20.87;59.66
40596;BME280;26304;48.794;9.820;2023-05-08T18:00:20;96770.28;;;20.81;59.93
40596;BME280;26304;48.794;9.820;2023-05-08T18:06:03;96779.34;;;20.84;59.83
40596;BME280;26304;48.794;9.820;2023-05-08T18:11:45;96787.66;;;20.90;59.94
40596;BME280;26304;48.794;9.820;2023-05-08T18:17:32;96774.84;;;20.99;60.05
40596;BME280;26304;48.794;9.820;2023-05-08T18:23:15;96782.78;;;21.10;59.94
40596;BME280;26304;48.794;9.820;2023-05-08T18:28:57;96783.16;;;21.12;60.24
40596;BME280;26304;48.794;9.820;2023-05-08T18:34:41;96784.69;;;21.16;59.91
40596;BME280;26304;48.794;9.820;2023-05-08T18:40:23;96782.41;;;21.18;59.75
40596;BME280;26304;48.794;9.820;2023-05-08T18:46:07;96788.47;;;21.19;59.42
40596;BME280;26304;48.794;9.820;2023-05-08T18:51:51;96786.94;;;21.21;59.99
40596;BME280;26304;48.794;9.820;2023-05-08T18:57:33;96779.75;;;21.22;59.77
40596;BME280;26304;48.794;9.820;2023-05-08T19:03:16;96789.19;;;21.27;59.52
40596;BME280;26304;48.794;9.820;2023-05-08T19:09:00;96797.50;;;21.25;59.76
40596;BME280;26304;48.794;9.820;2023-05-08T19:14:43;96784.66;;;20.98;59.81
40596;BME280;26304;48.794;9.820;2023-05-08T19:20:25;96781.97;;;20.80;59.86
40596;BME280;26304;48.794;9.820;2023-05-08T19:26:09;96789.88;;;20.70;59.85
40596;BME280;26304;48.794;9.820;2023-05-08T19:31:51;96789.53;;;20.78;59.65
40596;BME280;26304;48.794;9.820;2023-05-08T19:37:34;96783.75;;;20.55;60.45
40596;BME280;26304;48.794;9.820;2023-05-08T19:43:17;96783.00;;;20.58;60.09
40596;BME280;26304;48.794;9.820;2023-05-08T19:49:00;96792.78;;;20.50;60.48
40596;BME280;26304;48.794;9.820;2023-05-08T19:54:42;96791.25;;;20.38;60.52
40596;BME280;26304;48.794;9.820;2023-05-08T20:00:28;96798.81;;;20.36;60.35
40596;BME280;26304;48.794;9.820;2023-05-08T20:06:10;96804.41;;;20.31;60.58
40596;BME280;26304;48.794;9.820;2023-05-08T20:11:53;96801.75;;;20.24;60.78
40596;BME280;26304;48.794;9.820;2023-05-08T20:17:39;96794.19;;;20.19;61.05
40596;BME280;26304;48.794;9.820;2023-05-08T20:23:21;96800.66;;;20.28;60.59
40596;BME280;26304;48.794;9.820;2023-05-08T20:29:04;96792.66;;;20.14;61.11
40596;BME280;26304;48.794;9.820;2023-05-08T20:34:49;96780.94;;;20.08;61.22
40596;BME280;26304;48.794;9.820;2023-05-08T20:40:31;96769.59;;;20.04;61.25
40596;BME280;26304;48.794;9.820;2023-05-08T20:46:14;96778.22;;;19.90;61.69
40596;BME280;26304;48.794;9.820;2023-05-08T20:51:57;96774.41;;;19.87;61.64
40596;BME280;26304;48.794;9.820;2023-05-08T20:57:40;96770.91;;;19.72;61.85
40596;BME280;26304;48.794;9.820;2023-05-08T21:03:22;96762.59;;;19.70;62.32
40596;BME280;26304;48.794;9.820;2023-05-08T21:09:06;96760.06;;;19.85;61.44
40596;BME280;26304;48.794;9.820;2023-05-08T21:14:49;96757.72;;;19.72;61.52
40596;BME280;26304;48.794;9.820;2023-05-08T21:20:31;96760.06;;;19.81;61.41
40596;BME280;26304;48.794;9.820;2023-05-08T21:26:16;96756.22;;;19.75;61.24
40596;BME280;26304;48.794;9.820;2023-05-08T21:31:59;96746.81;;;19.74;61.03
40596;BME280;26304;48.794;9.820;2023-05-08T21:37:42;96739.31;;;19.76;60.96
40596;BME280;26304;48.794;9.820;2023-05-08T21:43:25;96738.09;;;19.66;61.28
40596;BME280;26304;48.794;9.820;2023-05-08T21:49:08;96744.22;;;19.81;60.64
40596;BME280;26304;48.794;9.820;2023-05-08T21:54:51;96741.78;;;19.54;61.52
40596;BME280;26304;48.794;9.820;2023-05-08T22:00:35;96750.50;;;19.62;61.37
40596;BME280;26304;48.794;9.820;2023-05-08T22:06:17;96732.06;;;19.66;61.08
40596;BME280;26304;48.794;9.820;2023-05-08T22:11:59;96737.13;;;19.37;62.06
40596;BME280;26304;48.794;9.820;2023-05-08T22:17:43;96744.75;;;19.49;61.63
40596;BME280;26304;48.794;9.820;2023-05-08T22:23:26;96736.47;;;19.51;61.55
40596;BME280;26304;48.794;9.820;2023-05-08T22:29:08;96735.63;;;19.36;61.95
40596;BME280;26304;48.794;9.820;2023-05-08T22:34:52;96740.00;;;19.17;62.17
40596;BME280;26304;48.794;9.820;2023-05-08T22:40:35;96732.94;;;19.29;61.64
40596;BME280;26304;48.794;9.820;2023-05-08T22:46:18;96733.53;;;19.11;61.89
40596;BME280;26304;48.794;9.820;2023-05-08T22:52:02;96720.34;;;19.08;62.01
40596;BME280;26304;48.794;9.820;2023-05-08T22:57:44;96726.34;;;19.04;61.53
40596;BME280;26304;48.794;9.820;2023-05-08T23:03:26;96729.16;;;18.81;62.46
40596;BME280;26304;48.794;9.820;2023-05-08T23:09:10;96718.88;;;18.69;62.45
40596;BME280;26304;48.794;9.820;2023-05-08T23:14:52;96710.09;;;18.58;62.66
40596;BME280;26304;48.794;9.820;2023-05-08T23:20:35;96710.50;;;18.97;61.35
40596;BME280;26304;48.794;9.820;2023-05-08T23:26:18;96697.72;;;18.99;61.28
40596;BME280;26304;48.794;9.820;2023-05-08T23:32:01;96686.00;;;18.97;61.29
40596;BME280;26304;48.794;9.820;2023-05-08T23:37:43;96689.09;;;19.06;61.17
40596;BME280;26304;48.794;9.820;2023-05-08T23:43:27;96687.16;;;18.96;61.09
40596;BME280;26304;48.794;9.820;2023-05-08T23:49:09;96683.00;;;18.95;60.87
40596;BME280;26304;48.794;9.820;2023-05-08T23:54:52;96670.53;;;18.92;60.47
